createdAt,value
2019-05-30T00:00:05.855Z,3.43
2019-05-30T00:02:21.001Z,3.10
2019-05-30T00:04:49.413Z,2.93
2019-05-30T00:07:17.818Z,3.23
2019-05-30T00:09:46.313Z,3.27
2019-05-30T00:12:14.713Z,3.70
2019-05-30T00:14:43.418Z,3.30
2019-05-30T00:17:12.217Z,3.37
2019-05-30T00:19:40.630Z,3.10
2019-05-30T00:22:09.093Z,3.60
2019-05-30T00:24:37.505Z,3.40
2019-05-30T00:27:06.615Z,3.20
2019-05-30T00:29:35.190Z,3.40
2019-05-30T00:32:04.405Z,4.13
2019-05-30T00:34:33.373Z,3.60
2019-05-30T00:37:02.091Z,4.20
2019-05-30T00:39:30.930Z,5.00
2019-05-30T00:41:59.990Z,3.97
2019-05-30T00:44:28.829Z,4.10
2019-05-30T00:46:58.060Z,4.20
2019-05-30T00:49:26.619Z,4.43
2019-05-30T00:51:56.345Z,4.23
2019-05-30T00:54:25.213Z,4.10
2019-05-30T00:56:53.612Z,4.10
2019-05-30T00:59:22.018Z,4.27
2019-05-30T01:01:50.781Z,3.60
2019-05-30T01:04:19.184Z,3.87
2019-05-30T01:06:47.612Z,4.53
2019-05-30T01:09:16.325Z,3.90
2019-05-30T01:11:44.732Z,3.80
2019-05-30T01:14:13.140Z,3.87
2019-05-30T01:16:42.678Z,4.30
2019-05-30T01:19:11.399Z,3.80
2019-05-30T01:21:40.241Z,3.50
2019-05-30T01:24:08.642Z,3.60
2019-05-30T01:26:37.062Z,4.10
2019-05-30T01:29:05.954Z,3.50
2019-05-30T01:31:34.364Z,4.00
2019-05-30T01:34:03.698Z,4.30
2019-05-30T01:36:32.254Z,4.10
2019-05-30T01:39:01.742Z,3.63
2019-05-30T01:41:30.617Z,4.13
2019-05-30T01:43:59.814Z,3.80
2019-05-30T01:46:28.309Z,4.00
2019-05-30T01:48:58.079Z,3.80
2019-05-30T01:51:26.598Z,3.90
2019-05-30T01:53:55.297Z,4.83
2019-05-30T01:56:23.708Z,3.97
2019-05-30T01:58:52.105Z,3.30
2019-05-30T02:01:25.076Z,4.40
2019-05-30T02:03:50.636Z,4.40
2019-05-30T02:06:19.353Z,3.90
2019-05-30T02:08:47.750Z,3.83
2019-05-30T02:11:16.164Z,4.00
2019-05-30T02:13:44.915Z,3.93
2019-05-30T02:16:13.325Z,3.43
2019-05-30T02:18:41.729Z,3.80
2019-05-30T02:21:10.143Z,4.33
2019-05-30T02:23:38.546Z,3.70
2019-05-30T02:26:08.166Z,3.80
2019-05-30T02:28:36.745Z,4.40
2019-05-30T02:31:05.716Z,4.50
2019-05-30T02:33:35.775Z,3.90
2019-05-30T02:36:05.975Z,3.70
2019-05-30T02:38:34.298Z,4.20
2019-05-30T02:41:03.400Z,4.30
2019-05-30T02:43:33.483Z,4.03
2019-05-30T02:46:03.466Z,4.33
2019-05-30T02:48:32.029Z,3.93
2019-05-30T02:51:00.994Z,3.90
2019-05-30T02:53:29.605Z,3.97
2019-05-30T02:55:58.026Z,4.60
2019-05-30T02:58:26.418Z,4.03
2019-05-30T03:00:54.836Z,4.63
2019-05-30T03:03:23.230Z,4.20
2019-05-30T03:05:51.717Z,4.37
2019-05-30T03:08:20.206Z,4.33
2019-05-30T03:10:48.985Z,4.30
2019-05-30T03:13:17.441Z,4.43
2019-05-30T03:15:45.855Z,4.80
2019-05-30T03:18:15.109Z,4.37
2019-05-30T03:20:44.782Z,4.53
2019-05-30T03:23:14.709Z,4.10
2019-05-30T03:25:43.861Z,4.70
2019-05-30T03:28:13.648Z,4.50
2019-05-30T03:30:44.851Z,4.17
2019-05-30T03:33:31.754Z,4.50
2019-05-30T03:35:44.762Z,4.30
2019-05-30T03:38:15.505Z,4.57
2019-05-30T03:40:43.492Z,4.40
2019-05-30T03:43:13.791Z,4.87
2019-05-30T03:45:43.927Z,4.47
2019-05-30T03:48:16.305Z,4.20
2019-05-30T03:50:48.156Z,4.07
2019-05-30T03:53:16.885Z,4.93
2019-05-30T03:55:48.705Z,5.00
2019-05-30T03:58:23.228Z,4.60
2019-05-30T04:00:57.405Z,4.73
2019-05-30T04:03:48.658Z,4.73
2019-05-30T04:06:25.911Z,4.33
2019-05-30T04:08:57.658Z,4.73
2019-05-30T04:11:29.450Z,4.97
2019-05-30T04:14:00.925Z,4.60
2019-05-30T04:16:29.342Z,4.60
2019-05-30T04:18:58.078Z,5.33
2019-05-30T04:21:26.766Z,4.90
2019-05-30T04:23:55.168Z,4.30
2019-05-30T04:26:23.842Z,4.07
2019-05-30T04:28:52.246Z,5.03
2019-05-30T04:31:20.651Z,4.17
2019-05-30T04:33:49.060Z,3.90
2019-05-30T04:36:18.942Z,3.70
2019-05-30T04:38:47.823Z,4.37
2019-05-30T04:41:18.673Z,4.10
2019-05-30T04:43:46.356Z,4.00
2019-05-30T04:46:16.745Z,4.27
2019-05-30T04:48:44.881Z,4.10
2019-05-30T04:51:14.565Z,4.50
2019-05-30T04:53:43.425Z,3.80
2019-05-30T04:56:12.620Z,3.20
2019-05-30T04:58:42.503Z,3.60
2019-05-30T05:01:12.912Z,3.93
2019-05-30T05:03:46.179Z,3.60
2019-05-30T05:06:13.611Z,3.77
2019-05-30T05:08:42.321Z,3.20
2019-05-30T05:11:13.056Z,3.83
2019-05-30T05:13:41.117Z,3.03
2019-05-30T05:16:22.984Z,4.00
2019-05-30T05:18:39.925Z,3.03
2019-05-30T05:21:08.323Z,2.73
2019-05-30T05:23:36.734Z,3.00
2019-05-30T05:26:05.484Z,3.23
2019-05-30T05:28:34.171Z,2.97
2019-05-30T05:31:02.679Z,3.10
2019-05-30T05:33:31.085Z,2.83
2019-05-30T05:35:59.481Z,2.50
2019-05-30T05:38:28.513Z,2.53
2019-05-30T05:40:56.984Z,2.77
2019-05-30T05:43:25.392Z,2.73
2019-05-30T05:45:53.796Z,2.90
2019-05-30T05:48:22.613Z,3.10
2019-05-30T05:50:51.182Z,2.50
2019-05-30T05:53:20.745Z,2.47
2019-05-30T05:55:49.365Z,2.40
2019-05-30T05:58:18.981Z,2.37
2019-05-30T06:00:47.838Z,2.50
2019-05-30T06:03:16.842Z,2.10
2019-05-30T06:05:52.937Z,2.40
2019-05-30T06:08:17.369Z,2.43
2019-05-30T06:10:45.989Z,2.20
2019-05-30T06:13:14.398Z,2.23
2019-05-30T06:15:43.053Z,2.50
2019-05-30T06:18:11.779Z,2.60
2019-05-30T06:20:40.217Z,2.70
2019-05-30T06:23:08.624Z,2.60
2019-05-30T06:25:37.304Z,3.37
2019-05-30T06:28:05.992Z,3.10
2019-05-30T06:30:34.390Z,2.80
2019-05-30T06:33:02.800Z,3.03
2019-05-30T06:35:31.208Z,2.80
2019-05-30T06:37:59.680Z,3.30
2019-05-30T06:40:31.769Z,2.97
2019-05-30T06:42:58.648Z,3.43
2019-05-30T06:45:28.414Z,3.50
2019-05-30T06:47:56.907Z,3.50
2019-05-30T06:50:25.316Z,2.93
2019-05-30T06:52:53.777Z,3.30
2019-05-30T06:55:23.108Z,3.10
2019-05-30T06:57:51.566Z,3.17
2019-05-30T07:00:21.707Z,3.23
2019-05-30T07:02:50.631Z,3.60
2019-05-30T07:05:19.631Z,3.17
2019-05-30T07:07:48.634Z,3.13
2019-05-30T07:10:17.725Z,3.47
2019-05-30T07:12:46.494Z,3.27
2019-05-30T07:15:16.347Z,3.90
2019-05-30T07:17:44.749Z,3.20
2019-05-30T07:20:13.237Z,3.90
2019-05-30T07:22:41.974Z,3.70
2019-05-30T07:25:11.016Z,3.80
2019-05-30T07:27:39.415Z,4.03
2019-05-30T07:30:08.574Z,3.87
2019-05-30T07:32:36.997Z,4.17
2019-05-30T07:35:09.714Z,4.57
2019-05-30T07:37:38.109Z,4.90
2019-05-30T07:40:09.247Z,4.27
2019-05-30T07:42:38.316Z,4.83
2019-05-30T07:45:09.826Z,3.97
2019-05-30T07:47:38.572Z,4.00
2019-05-30T07:50:10.298Z,4.40
2019-05-30T07:52:39.140Z,4.10
2019-05-30T07:55:11.518Z,4.67
2019-05-30T07:57:41.447Z,4.30
2019-05-30T08:00:12.603Z,4.37
2019-05-30T08:02:40.998Z,5.13
2019-05-30T08:05:23.359Z,4.27
2019-05-30T08:07:39.924Z,5.00
2019-05-30T08:10:09.814Z,5.87
2019-05-30T08:12:38.466Z,4.90
2019-05-30T08:15:09.215Z,5.57
2019-05-30T08:17:37.970Z,4.73
2019-05-30T08:20:07.954Z,5.60
2019-05-30T08:22:36.344Z,5.40
2019-05-30T08:25:06.493Z,5.30
2019-05-30T08:27:36.203Z,5.83
2019-05-30T08:30:09.796Z,4.43
2019-05-30T08:32:38.939Z,5.60
2019-05-30T08:35:08.256Z,4.83
2019-05-30T08:37:37.334Z,4.67
2019-05-30T08:40:10.037Z,4.20
2019-05-30T08:42:39.051Z,5.10
2019-05-30T08:45:10.092Z,5.30
2019-05-30T08:47:38.656Z,4.33
2019-05-30T08:50:08.805Z,5.10
2019-05-30T08:52:38.494Z,4.43
2019-05-30T08:55:08.145Z,5.10
2019-05-30T08:57:36.719Z,5.80
2019-05-30T09:00:09.834Z,5.73
2019-05-30T09:02:38.846Z,7.20
2019-05-30T09:05:08.065Z,6.63
2019-05-30T09:07:36.612Z,6.07
2019-05-30T09:10:07.294Z,8.30
2019-05-30T09:12:36.410Z,6.27
2019-05-30T09:15:11.368Z,7.83
2019-05-30T09:17:40.545Z,8.60
2019-05-30T09:20:11.217Z,10.70
2019-05-30T09:22:39.821Z,10.70
2019-05-30T09:25:13.602Z,9.20
2019-05-30T09:27:42.885Z,7.10
2019-05-30T09:30:13.793Z,8.30
2019-05-30T09:32:43.276Z,6.70
2019-05-30T09:35:13.793Z,7.90
2019-05-30T09:37:43.764Z,6.73
2019-05-30T09:40:13.725Z,5.63
2019-05-30T09:42:44.139Z,6.50
2019-05-30T09:45:14.876Z,5.67
2019-05-30T09:47:45.157Z,6.47
2019-05-30T09:50:13.960Z,5.30
2019-05-30T09:52:43.576Z,5.10
2019-05-30T09:55:13.705Z,5.87
2019-05-30T09:57:42.990Z,6.50
2019-05-30T10:00:17.562Z,4.50
2019-05-30T10:02:46.769Z,6.33
2019-05-30T10:05:17.401Z,7.97
2019-05-30T10:07:47.488Z,7.17
2019-05-30T10:10:17.056Z,6.43
2019-05-30T10:12:46.911Z,6.50
2019-05-30T10:15:16.110Z,8.80
2019-05-30T10:17:45.918Z,8.43
2019-05-30T10:20:16.218Z,6.27
2019-05-30T10:22:47.085Z,8.50
2019-05-30T10:25:15.145Z,8.50
2019-05-30T10:27:43.565Z,8.63
2019-05-30T10:30:14.585Z,7.10
2019-05-30T10:32:43.004Z,10.80
2019-05-30T10:35:11.689Z,7.97
2019-05-30T10:37:40.438Z,10.10
2019-05-30T10:40:10.344Z,7.80
2019-05-30T10:42:38.749Z,8.53
2019-05-30T10:45:11.354Z,9.70
2019-05-30T10:47:39.753Z,8.77
2019-05-30T10:50:09.797Z,7.13
2019-05-30T10:52:38.197Z,9.20
2019-05-30T10:55:08.101Z,7.90
2019-05-30T10:57:36.569Z,7.30
2019-05-30T11:00:09.765Z,9.00
2019-05-30T11:02:38.139Z,7.13
2019-05-30T11:05:10.294Z,8.43
2019-05-30T11:07:59.003Z,7.20
2019-05-30T11:10:29.273Z,7.20
2019-05-30T11:13:05.667Z,8.17
2019-05-30T11:15:28.134Z,7.40
2019-05-30T11:17:57.690Z,5.40
2019-05-30T11:20:26.251Z,6.70
2019-05-30T11:22:54.687Z,8.13
2019-05-30T11:25:23.394Z,6.67
2019-05-30T11:27:52.690Z,6.27
2019-05-30T11:30:21.295Z,6.50
2019-05-30T11:32:50.825Z,6.70
2019-05-30T11:35:19.431Z,6.77
2019-05-30T11:37:49.010Z,6.47
2019-05-30T11:40:17.918Z,5.90
2019-05-30T11:42:46.325Z,6.03
2019-05-30T11:45:15.805Z,6.20
2019-05-30T11:47:44.220Z,6.63
2019-05-30T11:50:13.269Z,6.70
2019-05-30T11:52:42.526Z,6.50
2019-05-30T11:55:12.341Z,5.57
2019-05-30T11:57:40.806Z,5.03
2019-05-30T12:00:09.750Z,7.23
2019-05-30T12:02:38.174Z,7.77
2019-05-30T12:05:08.201Z,8.20
2019-05-30T12:07:37.094Z,7.47
2019-05-30T12:10:06.932Z,8.63
2019-05-30T12:12:35.521Z,8.87
2019-05-30T12:15:07.343Z,8.57
2019-05-30T12:17:35.750Z,8.33
2019-05-30T12:20:06.743Z,8.40
2019-05-30T12:22:35.148Z,7.80
2019-05-30T12:25:05.665Z,8.33
2019-05-30T12:27:34.076Z,7.53
2019-05-30T12:30:02.993Z,9.03
2019-05-30T12:32:31.406Z,8.90
2019-05-30T12:35:00.478Z,7.80
2019-05-30T12:37:29.191Z,9.10
2019-05-30T12:39:58.703Z,11.03
2019-05-30T12:42:27.191Z,12.70
2019-05-30T12:44:55.619Z,12.33
2019-05-30T12:47:24.092Z,11.70
2019-05-30T12:49:53.266Z,9.40
2019-05-30T12:52:21.789Z,11.00
2019-05-30T12:54:50.266Z,10.73
2019-05-30T12:57:18.680Z,11.13
2019-05-30T12:59:47.166Z,8.17
2019-05-30T13:02:15.581Z,9.73
2019-05-30T13:04:43.998Z,10.63
2019-05-30T13:07:12.582Z,10.30
2019-05-30T13:09:41.246Z,7.87
2019-05-30T13:12:09.663Z,8.23
2019-05-30T13:14:38.065Z,11.97
2019-05-30T13:17:06.550Z,12.17
2019-05-30T13:19:35.290Z,11.97
2019-05-30T13:22:03.709Z,11.80
2019-05-30T13:24:32.361Z,11.77
2019-05-30T13:27:01.829Z,11.97
2019-05-30T13:29:30.365Z,12.27
2019-05-30T13:31:58.785Z,9.40
2019-05-30T13:34:27.186Z,12.23
2019-05-30T13:36:56.877Z,11.33
2019-05-30T13:39:25.410Z,13.30
2019-05-30T13:41:53.828Z,13.77
2019-05-30T13:44:22.490Z,10.60
2019-05-30T13:46:50.920Z,13.80
2019-05-30T13:49:19.317Z,12.00
2019-05-30T13:51:47.739Z,12.47
2019-05-30T13:54:16.137Z,12.47
2019-05-30T13:56:44.817Z,12.57
2019-05-30T13:59:13.220Z,11.30
2019-05-30T14:01:41.625Z,11.50
2019-05-30T14:04:10.459Z,11.57
2019-05-30T14:06:39.021Z,13.47
2019-05-30T14:09:08.587Z,15.17
2019-05-30T14:11:37.581Z,14.23
2019-05-30T14:14:06.880Z,16.30
2019-05-30T14:16:35.758Z,16.17
2019-05-30T14:19:05.317Z,11.57
2019-05-30T14:21:33.862Z,16.80
2019-05-30T14:24:03.419Z,17.03
2019-05-30T14:26:32.470Z,16.60
2019-05-30T14:29:02.220Z,16.77
2019-05-30T14:31:30.855Z,15.10
2019-05-30T14:33:59.265Z,13.57
2019-05-30T14:36:28.142Z,15.40
2019-05-30T14:38:58.793Z,13.90
2019-05-30T14:41:26.965Z,13.93
2019-05-30T14:43:55.459Z,12.10
2019-05-30T14:46:23.866Z,12.63
2019-05-30T14:48:52.275Z,8.77
2019-05-30T14:51:20.677Z,13.87
2019-05-30T14:53:49.380Z,14.40
2019-05-30T14:56:18.082Z,15.30
2019-05-30T14:58:46.498Z,12.70
2019-05-30T15:01:15.248Z,13.87
2019-05-30T15:03:43.929Z,11.80
2019-05-30T15:06:15.378Z,14.97
2019-05-30T15:08:43.217Z,12.60
2019-05-30T15:11:11.941Z,10.73
2019-05-30T15:13:40.362Z,12.40
2019-05-30T15:16:08.860Z,12.80
2019-05-30T15:18:37.363Z,13.13
2019-05-30T15:21:06.262Z,9.40
2019-05-30T15:23:35.077Z,10.47
2019-05-30T15:26:03.549Z,12.33
2019-05-30T15:28:32.258Z,12.97
2019-05-30T15:31:00.749Z,14.17
2019-05-30T15:33:29.163Z,10.80
2019-05-30T15:35:57.567Z,11.70
2019-05-30T15:38:26.297Z,10.90
2019-05-30T15:40:54.986Z,13.40
2019-05-30T15:43:23.404Z,12.43
2019-05-30T15:45:52.059Z,10.03
2019-05-30T15:48:20.741Z,10.20
2019-05-30T15:50:49.149Z,9.87
2019-05-30T15:53:17.557Z,9.77
2019-05-30T15:55:45.961Z,11.40
2019-05-30T15:58:15.744Z,10.80
2019-05-30T16:00:44.605Z,10.73
2019-05-30T16:03:14.611Z,9.60
2019-05-30T16:05:43.178Z,9.80
2019-05-30T16:08:12.610Z,10.13
2019-05-30T16:10:41.176Z,10.20
2019-05-30T16:13:09.664Z,9.50
2019-05-30T16:15:38.841Z,9.63
2019-05-30T16:18:07.252Z,8.97
2019-05-30T16:20:35.963Z,8.77
2019-05-30T16:23:04.374Z,8.00
2019-05-30T16:25:33.029Z,8.70
2019-05-30T16:28:01.736Z,7.83
2019-05-30T16:30:30.244Z,7.70
2019-05-30T16:32:58.667Z,7.83
2019-05-30T16:35:27.060Z,8.43
2019-05-30T16:37:55.489Z,8.63
2019-05-30T16:40:24.146Z,8.87
2019-05-30T16:42:52.577Z,8.67
2019-05-30T16:45:24.915Z,8.40
2019-05-30T16:47:51.845Z,8.57
2019-05-30T16:50:24.082Z,8.10
2019-05-30T16:52:52.644Z,8.10
2019-05-30T16:55:21.592Z,7.83
2019-05-30T16:57:50.005Z,9.20
2019-05-30T17:00:19.924Z,9.00
2019-05-30T17:02:48.539Z,7.90
2019-05-30T17:05:17.382Z,8.40
2019-05-30T17:07:48.509Z,8.70
2019-05-30T17:10:23.390Z,8.30
2019-05-30T17:12:46.622Z,8.50
2019-05-30T17:15:17.679Z,6.37
2019-05-30T17:17:46.562Z,6.63
2019-05-30T17:20:16.424Z,7.07
2019-05-30T17:22:44.892Z,7.70
2019-05-30T17:25:13.653Z,7.33
2019-05-30T17:27:42.162Z,7.47
2019-05-30T17:30:12.857Z,8.00
2019-05-30T17:32:41.257Z,7.17
2019-05-30T17:35:10.408Z,7.03
2019-05-30T17:37:39.152Z,6.47
2019-05-30T17:40:10.726Z,6.50
2019-05-30T17:42:38.944Z,6.80
2019-05-30T17:45:09.487Z,7.40
2019-05-30T17:47:37.957Z,7.70
2019-05-30T17:50:08.708Z,5.33
2019-05-30T17:52:37.124Z,5.80
2019-05-30T17:55:07.544Z,6.07
2019-05-30T17:57:35.939Z,7.00
2019-05-30T18:00:07.569Z,5.40
2019-05-30T18:02:36.010Z,5.63
2019-05-30T18:05:09.465Z,6.53
2019-05-30T18:07:37.865Z,4.87
2019-05-30T18:10:07.417Z,5.20
2019-05-30T18:12:35.817Z,5.93
2019-05-30T18:15:09.162Z,6.37
2019-05-30T18:17:37.557Z,5.93
2019-05-30T18:20:11.016Z,5.63
2019-05-30T18:22:39.737Z,5.63
2019-05-30T18:25:10.581Z,6.53
2019-05-30T18:27:39.069Z,5.50
2019-05-30T18:30:09.069Z,5.63
2019-05-30T18:32:37.466Z,5.60
2019-05-30T18:35:07.749Z,5.43
2019-05-30T18:37:37.487Z,5.63
2019-05-30T18:40:08.005Z,5.40
2019-05-30T18:42:37.202Z,5.13
2019-05-30T18:45:08.529Z,5.57
2019-05-30T18:47:36.931Z,5.80
2019-05-30T18:50:06.879Z,5.13
2019-05-30T18:52:35.273Z,5.87
2019-05-30T18:55:06.586Z,5.47
2019-05-30T18:57:35.061Z,4.73
2019-05-30T19:00:08.053Z,5.13
2019-05-30T19:02:36.881Z,5.07
2019-05-30T19:05:08.343Z,4.90
2019-05-30T19:07:37.196Z,5.10
2019-05-30T19:10:06.267Z,4.57
2019-05-30T19:12:34.681Z,5.20
2019-05-30T19:15:03.533Z,5.13
2019-05-30T19:17:32.013Z,4.20
2019-05-30T19:20:00.434Z,5.07
2019-05-30T19:22:29.967Z,5.17
2019-05-30T19:24:58.430Z,4.80
2019-05-30T19:27:26.887Z,4.37
2019-05-30T19:29:55.289Z,4.67
2019-05-30T19:32:23.992Z,4.20
2019-05-30T19:34:52.405Z,4.80
2019-05-30T19:37:21.102Z,5.10
2019-05-30T19:39:49.653Z,4.63
2019-05-30T19:42:18.340Z,4.70
2019-05-30T19:44:46.744Z,4.67
2019-05-30T19:47:15.165Z,4.80
2019-05-30T19:49:43.576Z,4.50
2019-05-30T19:52:11.973Z,5.70
2019-05-30T19:54:40.380Z,3.87
2019-05-30T19:57:08.776Z,5.20
2019-05-30T19:59:37.931Z,4.57
2019-05-30T20:02:06.468Z,4.70
2019-05-30T20:04:34.938Z,5.20
2019-05-30T20:07:03.357Z,4.40
2019-05-30T20:09:32.479Z,4.80
2019-05-30T20:12:03.979Z,4.43
2019-05-30T20:14:31.526Z,4.40
2019-05-30T20:16:59.921Z,4.73
2019-05-30T20:19:28.333Z,4.57
2019-05-30T20:21:56.741Z,4.90
2019-05-30T20:24:25.160Z,5.27
2019-05-30T20:26:53.605Z,4.67
2019-05-30T20:29:22.309Z,5.10
2019-05-30T20:31:50.723Z,4.73
2019-05-30T20:34:19.119Z,4.47
2019-05-30T20:36:47.529Z,5.50
2019-05-30T20:39:16.249Z,4.83
2019-05-30T20:41:44.665Z,5.20
2019-05-30T20:44:13.060Z,4.20
2019-05-30T20:46:41.554Z,4.70
2019-05-30T20:49:09.967Z,4.80
2019-05-30T20:51:39.632Z,5.00
2019-05-30T20:54:08.145Z,4.43
2019-05-30T20:56:37.373Z,5.50
2019-05-30T20:59:06.181Z,4.60
2019-05-30T21:01:35.596Z,5.00
2019-05-30T21:04:04.482Z,5.43
2019-05-30T21:06:34.641Z,4.27
2019-05-30T21:09:03.897Z,5.50
2019-05-30T21:11:34.045Z,4.47
2019-05-30T21:14:03.386Z,5.27
2019-05-30T21:16:33.233Z,5.33
2019-05-30T21:19:02.202Z,5.23
2019-05-30T21:21:30.681Z,5.70
2019-05-30T21:23:59.080Z,4.93
2019-05-30T21:26:27.497Z,5.53
2019-05-30T21:28:55.893Z,4.40
2019-05-30T21:31:24.557Z,4.00
2019-05-30T21:33:53.283Z,3.20
2019-05-30T21:36:21.770Z,3.40
2019-05-30T21:38:50.212Z,3.40
2019-05-30T21:41:18.681Z,3.40
2019-05-30T21:43:47.086Z,3.23
2019-05-30T21:46:15.493Z,3.67
2019-05-30T21:48:44.951Z,3.50
2019-05-30T21:51:13.481Z,3.20
2019-05-30T21:53:41.877Z,3.43
2019-05-30T21:56:12.890Z,3.80
2019-05-30T21:58:42.069Z,3.37
2019-05-30T22:01:22.947Z,3.70
2019-05-30T22:03:51.343Z,3.10
2019-05-30T22:06:19.925Z,3.50
2019-05-30T22:08:49.337Z,3.53
2019-05-30T22:11:17.905Z,3.53
2019-05-30T22:13:47.530Z,3.80
2019-05-30T22:16:16.089Z,4.07
2019-05-30T22:18:45.978Z,4.40
2019-05-30T22:21:14.509Z,4.53
2019-05-30T22:23:44.061Z,4.30
2019-05-30T22:26:12.929Z,4.50
2019-05-30T22:28:42.266Z,4.27
2019-05-30T22:31:10.776Z,4.40
2019-05-30T22:33:39.176Z,4.03
2019-05-30T22:36:07.592Z,4.30
2019-05-30T22:38:35.989Z,4.43
2019-05-30T22:41:04.409Z,4.30
2019-05-30T22:43:32.814Z,4.13
2019-05-30T22:46:01.512Z,3.37
2019-05-30T22:48:29.911Z,3.60
2019-05-30T22:50:58.588Z,4.00
2019-05-30T22:53:26.983Z,4.13
2019-05-30T22:55:55.392Z,3.77
2019-05-30T22:58:23.796Z,4.33
2019-05-30T23:00:52.221Z,2.90
2019-05-30T23:03:20.722Z,4.10
2019-05-30T23:05:49.306Z,4.00
2019-05-30T23:08:18.083Z,3.90
2019-05-30T23:10:47.575Z,3.63
2019-05-30T23:13:16.485Z,3.40
2019-05-30T23:15:46.033Z,3.43
2019-05-30T23:18:14.574Z,3.53
2019-05-30T23:20:43.481Z,3.47
2019-05-30T23:23:11.880Z,3.70
2019-05-30T23:25:40.296Z,3.40
2019-05-30T23:28:08.691Z,3.37
2019-05-30T23:30:37.432Z,3.27
2019-05-30T23:33:05.893Z,3.00
2019-05-30T23:35:34.288Z,2.83
2019-05-30T23:38:02.697Z,3.10
2019-05-30T23:40:31.092Z,3.20
2019-05-30T23:42:59.834Z,3.40
2019-05-30T23:45:28.232Z,2.40
2019-05-30T23:47:57.658Z,3.43
2019-05-30T23:50:26.518Z,3.30
2019-05-30T23:52:56.198Z,3.00
2019-05-30T23:55:24.710Z,2.90
2019-05-30T23:57:53.117Z,3.10
